sensor_id;sensor_type;location;lat;lon;timestamp;P1;durP1;ratioP1;P2;durP2;ratioP2
8663;SDS011;4369;47.842;13.096;2023-12-20T00:01:38;4.77;;;3.13;;
8663;SDS011;4369;47.842;13.096;2023-12-20T00:04:05;3.47;;;2.70;;
8663;SDS011;4369;47.842;13.096;2023-12-20T00:06:32;3.10;;;2.73;;
8663;SDS011;4369;47.842;13.096;2023-12-20T00:08:59;3.07;;;2.60;;
8663;SDS011;4369;47.842;13.096;2023-12-20T00:11:26;3.30;;;3.00;;
8663;SDS011;4369;47.842;13.096;2023-12-20T00:13:53;2.83;;;2.43;;
8663;SDS011;4369;47.842;13.096;2023-12-20T00:16:22;2.97;;;2.67;;
8663;SDS011;4369;47.842;13.096;2023-12-20T00:18:49;3.73;;;3.33;;
8663;SDS011;4369;47.842;13.096;2023-12-20T00:21:16;3.17;;;2.87;;
8663;SDS011;4369;47.842;13.096;2023-12-20T00:23:43;3.03;;;2.70;;
8663;SDS011;4369;47.842;13.096;2023-12-20T00:26:09;3.00;;;2.70;;
8663;SDS011;4369;47.842;13.096;2023-12-20T00:28:36;3.03;;;2.40;;
8663;SDS011;4369;47.842;13.096;2023-12-20T00:31:04;3.43;;;2.90;;
8663;SDS011;4369;47.842;13.096;2023-12-20T00:33:32;2.90;;;2.60;;
8663;SDS011;4369;47.842;13.096;2023-12-20T00:35:59;3.33;;;2.57;;
8663;SDS011;4369;47.842;13.096;2023-12-20T00:38:26;2.70;;;2.50;;
8663;SDS011;4369;47.842;13.096;2023-12-20T00:40:53;2.60;;;2.40;;
8663;SDS011;4369;47.842;13.096;2023-12-20T00:43:20;3.53;;;2.50;;
8663;SDS011;4369;47.842;13.096;2023-12-20T00:45:47;3.33;;;2.83;;
8663;SDS011;4369;47.842;13.096;2023-12-20T00:48:14;2.87;;;2.43;;
8663;SDS011;4369;47.842;13.096;2023-12-20T00:50:43;2.57;;;2.37;;
8663;SDS011;4369;47.842;13.096;2023-12-20T00:53:10;2.67;;;2.47;;
8663;SDS011;4369;47.842;13.096;2023-12-20T00:55:37;3.43;;;2.60;;
8663;SDS011;4369;47.842;13.096;2023-12-20T00:58:04;3.13;;;2.53;;
8663;SDS011;4369;47.842;13.096;2023-12-20T01:00:31;3.60;;;2.47;;
8663;SDS011;4369;47.842;13.096;2023-12-20T01:02:58;3.20;;;2.60;;
8663;SDS011;4369;47.842;13.096;2023-12-20T01:05:25;3.37;;;2.50;;
8663;SDS011;4369;47.842;13.096;2023-12-20T01:07:53;3.53;;;2.60;;
8663;SDS011;4369;47.842;13.096;2023-12-20T01:10:20;2.90;;;2.50;;
8663;SDS011;4369;47.842;13.096;2023-12-20T01:12:48;3.10;;;2.80;;
8663;SDS011;4369;47.842;13.096;2023-12-20T01:15:15;3.00;;;2.50;;
8663;SDS011;4369;47.842;13.096;2023-12-20T01:17:42;2.87;;;2.60;;
8663;SDS011;4369;47.842;13.096;2023-12-20T01:20:09;3.13;;;2.83;;
8663;SDS011;4369;47.842;13.096;2023-12-20T01:22:36;3.17;;;2.87;;
8663;SDS011;4369;47.842;13.096;2023-12-20T01:25:05;2.97;;;2.57;;
8663;SDS011;4369;47.842;13.096;2023-12-20T01:27:32;3.90;;;3.33;;
8663;SDS011;4369;47.842;13.096;2023-12-20T01:30:00;3.17;;;2.87;;
8663;SDS011;4369;47.842;13.096;2023-12-20T01:32:27;3.87;;;2.67;;
8663;SDS011;4369;47.842;13.096;2023-12-20T01:34:54;3.33;;;2.90;;
8663;SDS011;4369;47.842;13.096;2023-12-20T01:37:20;4.27;;;3.27;;
8663;SDS011;4369;47.842;13.096;2023-12-20T01:39:49;3.33;;;3.00;;
8663;SDS011;4369;47.842;13.096;2023-12-20T01:42:18;5.37;;;3.50;;
8663;SDS011;4369;47.842;13.096;2023-12-20T01:44:45;3.30;;;3.00;;
8663;SDS011;4369;47.842;13.096;2023-12-20T01:47:13;3.93;;;3.57;;
8663;SDS011;4369;47.842;13.096;2023-12-20T01:49:40;5.47;;;3.70;;
8663;SDS011;4369;47.842;13.096;2023-12-20T01:52:07;3.70;;;3.40;;
8663;SDS011;4369;47.842;13.096;2023-12-20T01:54:35;5.33;;;3.23;;
8663;SDS011;4369;47.842;13.096;2023-12-20T01:57:05;3.93;;;3.27;;
8663;SDS011;4369;47.842;13.096;2023-12-20T01:59:35;3.63;;;3.27;;
8663;SDS011;4369;47.842;13.096;2023-12-20T02:02:02;3.63;;;3.20;;
8663;SDS011;4369;47.842;13.096;2023-12-20T02:04:30;4.90;;;3.13;;
8663;SDS011;4369;47.842;13.096;2023-12-20T02:06:57;4.50;;;3.13;;
8663;SDS011;4369;47.842;13.096;2023-12-20T02:09:25;4.60;;;3.20;;
8663;SDS011;4369;47.842;13.096;2023-12-20T02:11:54;3.63;;;3.30;;
8663;SDS011;4369;47.842;13.096;2023-12-20T02:14:21;3.40;;;2.90;;
8663;SDS011;4369;47.842;13.096;2023-12-20T02:16:49;4.63;;;3.27;;
8663;SDS011;4369;47.842;13.096;2023-12-20T02:19:16;3.60;;;3.30;;
8663;SDS011;4369;47.842;13.096;2023-12-20T02:21:47;5.30;;;3.27;;
8663;SDS011;4369;47.842;13.096;2023-12-20T02:24:14;3.37;;;3.07;;
8663;SDS011;4369;47.842;13.096;2023-12-20T02:26:42;3.73;;;3.23;;
8663;SDS011;4369;47.842;13.096;2023-12-20T02:29:10;3.90;;;3.07;;
8663;SDS011;4369;47.842;13.096;2023-12-20T02:31:37;4.13;;;3.07;;
8663;SDS011;4369;47.842;13.096;2023-12-20T02:34:04;4.17;;;3.67;;
8663;SDS011;4369;47.842;13.096;2023-12-20T02:36:31;3.27;;;2.97;;
8663;SDS011;4369;47.842;13.096;2023-12-20T02:38:59;3.37;;;3.07;;
8663;SDS011;4369;47.842;13.096;2023-12-20T02:41:26;3.43;;;3.13;;
8663;SDS011;4369;47.842;13.096;2023-12-20T02:43:53;4.03;;;2.90;;
8663;SDS011;4369;47.842;13.096;2023-12-20T02:46:20;3.33;;;2.97;;
8663;SDS011;4369;47.842;13.096;2023-12-20T02:48:47;3.70;;;3.10;;
8663;SDS011;4369;47.842;13.096;2023-12-20T02:51:14;3.67;;;3.20;;
8663;SDS011;4369;47.842;13.096;2023-12-20T02:53:41;4.10;;;3.17;;
8663;SDS011;4369;47.842;13.096;2023-12-20T02:56:09;3.20;;;2.87;;
8663;SDS011;4369;47.842;13.096;2023-12-20T02:58:36;5.20;;;3.07;;
8663;SDS011;4369;47.842;13.096;2023-12-20T03:01:03;4.13;;;3.33;;
8663;SDS011;4369;47.842;13.096;2023-12-20T03:03:33;2.70;;;2.50;;
8663;SDS011;4369;47.842;13.096;2023-12-20T03:06:00;3.97;;;3.30;;
8663;SDS011;4369;47.842;13.096;2023-12-20T03:08:27;4.13;;;2.90;;
8663;SDS011;4369;47.842;13.096;2023-12-20T03:10:54;4.27;;;3.00;;
8663;SDS011;4369;47.842;13.096;2023-12-20T03:13:22;3.07;;;2.77;;
8663;SDS011;4369;47.842;13.096;2023-12-20T03:15:49;3.63;;;3.07;;
8663;SDS011;4369;47.842;13.096;2023-12-20T03:18:16;3.10;;;2.80;;
8663;SDS011;4369;47.842;13.096;2023-12-20T03:20:43;3.27;;;2.93;;
8663;SDS011;4369;47.842;13.096;2023-12-20T03:23:10;3.47;;;3.00;;
8663;SDS011;4369;47.842;13.096;2023-12-20T03:25:37;3.10;;;2.80;;
8663;SDS011;4369;47.842;13.096;2023-12-20T03:28:04;3.17;;;2.83;;
8663;SDS011;4369;47.842;13.096;2023-12-20T03:30:33;3.13;;;2.73;;
8663;SDS011;4369;47.842;13.096;2023-12-20T03:33:00;3.13;;;2.83;;
8663;SDS011;4369;47.842;13.096;2023-12-20T03:35:27;5.80;;;3.37;;
8663;SDS011;4369;47.842;13.096;2023-12-20T03:37:54;3.20;;;2.90;;
8663;SDS011;4369;47.842;13.096;2023-12-20T03:40:22;3.33;;;2.80;;
8663;SDS011;4369;47.842;13.096;2023-12-20T03:42:49;3.13;;;2.50;;
8663;SDS011;4369;47.842;13.096;2023-12-20T03:45:16;3.77;;;2.93;;
8663;SDS011;4369;47.842;13.096;2023-12-20T03:47:44;4.73;;;3.30;;
8663;SDS011;4369;47.842;13.096;2023-12-20T03:50:13;2.97;;;2.67;;
8663;SDS011;4369;47.842;13.096;2023-12-20T03:52:41;3.67;;;2.70;;
8663;SDS011;4369;47.842;13.096;2023-12-20T03:55:08;2.90;;;2.70;;
8663;SDS011;4369;47.842;13.096;2023-12-20T03:57:35;2.90;;;2.70;;
8663;SDS011;4369;47.842;13.096;2023-12-20T04:00:02;3.37;;;2.37;;
8663;SDS011;4369;47.842;13.096;2023-12-20T04:02:30;2.80;;;2.50;;
8663;SDS011;4369;47.842;13.096;2023-12-20T04:04:59;2.73;;;2.53;;
8663;SDS011;4369;47.842;13.096;2023-12-20T04:07:26;3.50;;;2.30;;
8663;SDS011;4369;47.842;13.096;2023-12-20T04:09:53;3.10;;;2.20;;
8663;SDS011;4369;47.842;13.096;2023-12-20T04:12:20;3.07;;;2.30;;
8663;SDS011;4369;47.842;13.096;2023-12-20T04:14:47;2.57;;;2.37;;
8663;SDS011;4369;47.842;13.096;2023-12-20T04:17:14;3.23;;;2.20;;
8663;SDS011;4369;47.842;13.096;2023-12-20T04:19:42;3.67;;;2.27;;
8663;SDS011;4369;47.842;13.096;2023-12-20T04:22:10;2.33;;;2.10;;
8663;SDS011;4369;47.842;13.096;2023-12-20T04:24:37;3.83;;;2.20;;
8663;SDS011;4369;47.842;13.096;2023-12-20T04:27:04;4.00;;;2.27;;
8663;SDS011;4369;47.842;13.096;2023-12-20T04:29:31;3.77;;;2.70;;
8663;SDS011;4369;47.842;13.096;2023-12-20T04:31:58;2.77;;;2.50;;
8663;SDS011;4369;47.842;13.096;2023-12-20T04:34:25;2.70;;;2.50;;
8663;SDS011;4369;47.842;13.096;2023-12-20T04:36:52;3.80;;;2.50;;
8663;SDS011;4369;47.842;13.096;2023-12-20T04:39:21;4.57;;;2.43;;
8663;SDS011;4369;47.842;13.096;2023-12-20T04:41:48;4.00;;;2.40;;
8663;SDS011;4369;47.842;13.096;2023-12-20T04:44:15;4.43;;;2.73;;
8663;SDS011;4369;47.842;13.096;2023-12-20T04:46:42;4.80;;;2.53;;
8663;SDS011;4369;47.842;13.096;2023-12-20T04:49:09;4.07;;;2.77;;
8663;SDS011;4369;47.842;13.096;2023-12-20T04:51:36;2.97;;;2.37;;
8663;SDS011;4369;47.842;13.096;2023-12-20T04:54:04;2.50;;;2.30;;
8663;SDS011;4369;47.842;13.096;2023-12-20T04:56:32;4.63;;;2.70;;
8663;SDS011;4369;47.842;13.096;2023-12-20T04:58:59;4.23;;;2.63;;
8663;SDS011;4369;47.842;13.096;2023-12-20T05:01:26;4.37;;;2.97;;
8663;SDS011;4369;47.842;13.096;2023-12-20T05:03:53;9.57;;;3.17;;
8663;SDS011;4369;47.842;13.096;2023-12-20T05:06:20;4.27;;;3.03;;
8663;SDS011;4369;47.842;13.096;2023-12-20T05:08:47;3.67;;;2.80;;
8663;SDS011;4369;47.842;13.096;2023-12-20T05:11:14;3.20;;;2.90;;
8663;SDS011;4369;47.842;13.096;2023-12-20T05:13:43;4.83;;;2.97;;
8663;SDS011;4369;47.842;13.096;2023-12-20T05:16:10;4.50;;;3.00;;
8663;SDS011;4369;47.842;13.096;2023-12-20T05:18:39;3.20;;;2.80;;
8663;SDS011;4369;47.842;13.096;2023-12-20T05:21:06;6.73;;;3.50;;
8663;SDS011;4369;47.842;13.096;2023-12-20T05:23:33;3.73;;;2.70;;
8663;SDS011;4369;47.842;13.096;2023-12-20T05:26:00;3.07;;;2.70;;
8663;SDS011;4369;47.842;13.096;2023-12-20T05:28:27;3.53;;;3.03;;
8663;SDS011;4369;47.842;13.096;2023-12-20T05:30:55;3.20;;;2.73;;
8663;SDS011;4369;47.842;13.096;2023-12-20T05:33:23;3.53;;;2.83;;
8663;SDS011;4369;47.842;13.096;2023-12-20T05:35:50;3.17;;;2.30;;
8663;SDS011;4369;47.842;13.096;2023-12-20T05:38:17;2.40;;;2.20;;
8663;SDS011;4369;47.842;13.096;2023-12-20T05:40:44;2.83;;;2.40;;
8663;SDS011;4369;47.842;13.096;2023-12-20T05:43:10;2.57;;;2.33;;
8663;SDS011;4369;47.842;13.096;2023-12-20T05:45:37;2.63;;;2.43;;
8663;SDS011;4369;47.842;13.096;2023-12-20T05:48:06;3.80;;;2.50;;
8663;SDS011;4369;47.842;13.096;2023-12-20T05:50:33;4.77;;;2.63;;
8663;SDS011;4369;47.842;13.096;2023-12-20T05:53:01;4.00;;;2.90;;
8663;SDS011;4369;47.842;13.096;2023-12-20T05:55:29;3.97;;;2.80;;
8663;SDS011;4369;47.842;13.096;2023-12-20T05:57:56;3.97;;;2.83;;
8663;SDS011;4369;47.842;13.096;2023-12-20T06:00:23;2.47;;;2.27;;
8663;SDS011;4369;47.842;13.096;2023-12-20T06:02:50;2.30;;;2.10;;
8663;SDS011;4369;47.842;13.096;2023-12-20T06:05:19;3.03;;;2.37;;
8663;SDS011;4369;47.842;13.096;2023-12-20T06:07:46;5.33;;;2.43;;
8663;SDS011;4369;47.842;13.096;2023-12-20T06:10:13;2.53;;;2.33;;
8663;SDS011;4369;47.842;13.096;2023-12-20T06:12:40;2.70;;;2.40;;
8663;SDS011;4369;47.842;13.096;2023-12-20T06:15:07;3.23;;;2.20;;
8663;SDS011;4369;47.842;13.096;2023-12-20T06:17:35;2.40;;;2.20;;
8663;SDS011;4369;47.842;13.096;2023-12-20T06:20:02;2.10;;;1.90;;
8663;SDS011;4369;47.842;13.096;2023-12-20T06:22:34;2.00;;;1.80;;
8663;SDS011;4369;47.842;13.096;2023-12-20T06:25:01;2.20;;;2.00;;
8663;SDS011;4369;47.842;13.096;2023-12-20T06:27:28;2.47;;;2.27;;
8663;SDS011;4369;47.842;13.096;2023-12-20T06:29:55;1.97;;;1.57;;
8663;SDS011;4369;47.842;13.096;2023-12-20T06:32:22;2.07;;;1.93;;
8663;SDS011;4369;47.842;13.096;2023-12-20T06:34:49;1.60;;;1.50;;
8663;SDS011;4369;47.842;13.096;2023-12-20T06:37:16;2.07;;;1.90;;
8663;SDS011;4369;47.842;13.096;2023-12-20T06:39:45;2.67;;;2.43;;
8663;SDS011;4369;47.842;13.096;2023-12-20T06:42:12;2.77;;;2.30;;
8663;SDS011;4369;47.842;13.096;2023-12-20T06:44:39;2.00;;;1.73;;
8663;SDS011;4369;47.842;13.096;2023-12-20T06:47:06;3.10;;;2.30;;
8663;SDS011;4369;47.842;13.096;2023-12-20T06:49:33;1.70;;;1.60;;
8663;SDS011;4369;47.842;13.096;2023-12-20T06:52:00;1.97;;;1.70;;
8663;SDS011;4369;47.842;13.096;2023-12-20T06:54:27;1.67;;;1.57;;
8663;SDS011;4369;47.842;13.096;2023-12-20T06:56:55;1.57;;;1.47;;
8663;SDS011;4369;47.842;13.096;2023-12-20T06:59:22;1.77;;;1.30;;
8663;SDS011;4369;47.842;13.096;2023-12-20T07:01:49;1.57;;;1.40;;
8663;SDS011;4369;47.842;13.096;2023-12-20T07:04:16;2.90;;;2.00;;
8663;SDS011;4369;47.842;13.096;2023-12-20T07:06:45;1.80;;;1.70;;
8663;SDS011;4369;47.842;13.096;2023-12-20T07:09:13;1.40;;;1.30;;
8663;SDS011;4369;47.842;13.096;2023-12-20T07:11:40;1.97;;;1.83;;
8663;SDS011;4369;47.842;13.096;2023-12-20T07:14:08;6.73;;;2.10;;
8663;SDS011;4369;47.842;13.096;2023-12-20T07:16:35;2.77;;;1.90;;
8663;SDS011;4369;47.842;13.096;2023-12-20T07:19:02;5.13;;;1.87;;
8663;SDS011;4369;47.842;13.096;2023-12-20T07:21:29;5.37;;;2.00;;
8663;SDS011;4369;47.842;13.096;2023-12-20T07:23:56;1.80;;;1.70;;
8663;SDS011;4369;47.842;13.096;2023-12-20T07:26:23;4.20;;;1.70;;
8663;SDS011;4369;47.842;13.096;2023-12-20T07:28:50;4.40;;;1.83;;
8663;SDS011;4369;47.842;13.096;2023-12-20T07:31:19;2.80;;;2.03;;
8663;SDS011;4369;47.842;13.096;2023-12-20T07:33:46;3.67;;;1.73;;
8663;SDS011;4369;47.842;13.096;2023-12-20T07:36:13;1.90;;;1.63;;
8663;SDS011;4369;47.842;13.096;2023-12-20T07:38:40;4.47;;;2.20;;
8663;SDS011;4369;47.842;13.096;2023-12-20T07:41:09;3.30;;;2.10;;
8663;SDS011;4369;47.842;13.096;2023-12-20T07:43:36;5.37;;;2.50;;
8663;SDS011;4369;47.842;13.096;2023-12-20T07:46:04;2.93;;;2.27;;
8663;SDS011;4369;47.842;13.096;2023-12-20T07:48:33;3.30;;;2.23;;
8663;SDS011;4369;47.842;13.096;2023-12-20T07:51:01;3.10;;;2.00;;
8663;SDS011;4369;47.842;13.096;2023-12-20T07:53:28;3.47;;;2.10;;
8663;SDS011;4369;47.842;13.096;2023-12-20T07:55:55;4.40;;;2.00;;
8663;SDS011;4369;47.842;13.096;2023-12-20T07:58:22;2.17;;;1.80;;
8663;SDS011;4369;47.842;13.096;2023-12-20T08:00:49;2.20;;;2.00;;
8663;SDS011;4369;47.842;13.096;2023-12-20T08:03:16;3.10;;;1.70;;
8663;SDS011;4369;47.842;13.096;2023-12-20T08:05:44;1.70;;;1.60;;
8663;SDS011;4369;47.842;13.096;2023-12-20T08:08:11;2.20;;;1.83;;
8663;SDS011;4369;47.842;13.096;2023-12-20T08:10:38;1.47;;;1.33;;
8663;SDS011;4369;47.842;13.096;2023-12-20T08:13:05;5.17;;;1.70;;
8663;SDS011;4369;47.842;13.096;2023-12-20T08:15:33;4.60;;;2.37;;
8663;SDS011;4369;47.842;13.096;2023-12-20T08:18:00;4.70;;;1.80;;
8663;SDS011;4369;47.842;13.096;2023-12-20T08:20:27;1.53;;;1.40;;
8663;SDS011;4369;47.842;13.096;2023-12-20T08:22:56;2.93;;;1.77;;
8663;SDS011;4369;47.842;13.096;2023-12-20T08:25:22;2.83;;;1.50;;
8663;SDS011;4369;47.842;13.096;2023-12-20T08:27:49;5.73;;;2.00;;
8663;SDS011;4369;47.842;13.096;2023-12-20T08:30:16;2.70;;;1.70;;
8663;SDS011;4369;47.842;13.096;2023-12-20T08:32:46;1.20;;;1.10;;
8663;SDS011;4369;47.842;13.096;2023-12-20T08:35:13;5.90;;;1.93;;
8663;SDS011;4369;47.842;13.096;2023-12-20T08:37:40;2.80;;;1.90;;
8663;SDS011;4369;47.842;13.096;2023-12-20T08:40:09;9.77;;;2.33;;
8663;SDS011;4369;47.842;13.096;2023-12-20T08:42:37;3.53;;;1.50;;
8663;SDS011;4369;47.842;13.096;2023-12-20T08:45:04;1.67;;;1.40;;
8663;SDS011;4369;47.842;13.096;2023-12-20T08:47:31;1.73;;;1.50;;
8663;SDS011;4369;47.842;13.096;2023-12-20T08:49:58;6.53;;;2.30;;
8663;SDS011;4369;47.842;13.096;2023-12-20T08:52:26;2.17;;;1.90;;
8663;SDS011;4369;47.842;13.096;2023-12-20T08:54:54;3.63;;;2.03;;
8663;SDS011;4369;47.842;13.096;2023-12-20T08:57:22;3.00;;;1.80;;
8663;SDS011;4369;47.842;13.096;2023-12-20T08:59:50;4.23;;;1.73;;
8663;SDS011;4369;47.842;13.096;2023-12-20T09:02:17;2.17;;;1.83;;
8663;SDS011;4369;47.842;13.096;2023-12-20T09:04:44;7.47;;;2.63;;
8663;SDS011;4369;47.842;13.096;2023-12-20T09:07:20;2.73;;;1.70;;
8663;SDS011;4369;47.842;13.096;2023-12-20T09:09:48;3.00;;;1.80;;
8663;SDS011;4369;47.842;13.096;2023-12-20T09:12:16;3.27;;;1.60;;
8663;SDS011;4369;47.842;13.096;2023-12-20T09:14:46;3.10;;;1.90;;
8663;SDS011;4369;47.842;13.096;2023-12-20T09:17:13;4.00;;;1.77;;
8663;SDS011;4369;47.842;13.096;2023-12-20T09:19:41;4.63;;;2.00;;
8663;SDS011;4369;47.842;13.096;2023-12-20T09:22:08;2.00;;;1.73;;
8663;SDS011;4369;47.842;13.096;2023-12-20T09:24:36;5.47;;;1.53;;
8663;SDS011;4369;47.842;13.096;2023-12-20T09:27:03;3.97;;;1.80;;
8663;SDS011;4369;47.842;13.096;2023-12-20T09:29:31;3.83;;;1.47;;
8663;SDS011;4369;47.842;13.096;2023-12-20T09:31:59;7.43;;;2.47;;
8663;SDS011;4369;47.842;13.096;2023-12-20T09:34:26;6.00;;;1.70;;
8663;SDS011;4369;47.842;13.096;2023-12-20T09:36:54;2.33;;;1.60;;
8663;SDS011;4369;47.842;13.096;2023-12-20T09:39:21;2.23;;;1.10;;
8663;SDS011;4369;47.842;13.096;2023-12-20T09:42:00;4.97;;;1.83;;
8663;SDS011;4369;47.842;13.096;2023-12-20T09:44:28;4.13;;;1.50;;
8663;SDS011;4369;47.842;13.096;2023-12-20T09:46:55;4.27;;;1.70;;
8663;SDS011;4369;47.842;13.096;2023-12-20T09:49:24;2.07;;;1.40;;
8663;SDS011;4369;47.842;13.096;2023-12-20T09:51:53;5.83;;;1.83;;
8663;SDS011;4369;47.842;13.096;2023-12-20T09:54:21;2.53;;;1.40;;
8663;SDS011;4369;47.842;13.096;2023-12-20T09:56:48;4.80;;;1.90;;
8663;SDS011;4369;47.842;13.096;2023-12-20T09:59:16;2.47;;;1.50;;
8663;SDS011;4369;47.842;13.096;2023-12-20T10:01:43;13.93;;;2.10;;
8663;SDS011;4369;47.842;13.096;2023-12-20T10:04:10;2.80;;;1.40;;
8663;SDS011;4369;47.842;13.096;2023-12-20T10:06:41;2.53;;;1.40;;
8663;SDS011;4369;47.842;13.096;2023-12-20T10:09:09;2.83;;;1.70;;
8663;SDS011;4369;47.842;13.096;2023-12-20T10:11:36;1.53;;;1.20;;
8663;SDS011;4369;47.842;13.096;2023-12-20T10:14:04;1.80;;;1.37;;
8663;SDS011;4369;47.842;13.096;2023-12-20T10:16:32;3.23;;;1.37;;
8663;SDS011;4369;47.842;13.096;2023-12-20T10:19:00;2.20;;;1.23;;
8663;SDS011;4369;47.842;13.096;2023-12-20T10:21:27;6.43;;;1.70;;
8663;SDS011;4369;47.842;13.096;2023-12-20T10:23:56;3.20;;;1.10;;
8663;SDS011;4369;47.842;13.096;2023-12-20T10:26:25;1.10;;;1.10;;
8663;SDS011;4369;47.842;13.096;2023-12-20T10:28:53;2.13;;;1.60;;
8663;SDS011;4369;47.842;13.096;2023-12-20T10:31:27;1.43;;;1.00;;
8663;SDS011;4369;47.842;13.096;2023-12-20T10:33:56;1.83;;;1.30;;
8663;SDS011;4369;47.842;13.096;2023-12-20T10:36:24;1.70;;;1.00;;
8663;SDS011;4369;47.842;13.096;2023-12-20T10:38:53;1.70;;;1.53;;
8663;SDS011;4369;47.842;13.096;2023-12-20T10:41:24;0.80;;;0.80;;
8663;SDS011;4369;47.842;13.096;2023-12-20T10:43:53;5.10;;;1.00;;
8663;SDS011;4369;47.842;13.096;2023-12-20T10:46:24;0.80;;;0.80;;
8663;SDS011;4369;47.842;13.096;2023-12-20T10:48:53;1.10;;;1.00;;
8663;SDS011;4369;47.842;13.096;2023-12-20T10:51:21;1.47;;;0.87;;
8663;SDS011;4369;47.842;13.096;2023-12-20T10:53:52;3.37;;;1.43;;
8663;SDS011;4369;47.842;13.096;2023-12-20T10:56:20;0.80;;;0.80;;
8663;SDS011;4369;47.842;13.096;2023-12-20T10:58:49;0.93;;;0.93;;
8663;SDS011;4369;47.842;13.096;2023-12-20T11:01:17;2.43;;;0.90;;
8663;SDS011;4369;47.842;13.096;2023-12-20T11:03:48;4.37;;;1.13;;
8663;SDS011;4369;47.842;13.096;2023-12-20T11:06:19;3.83;;;1.53;;
8663;SDS011;4369;47.842;13.096;2023-12-20T11:08:54;3.07;;;1.40;;
8663;SDS011;4369;47.842;13.096;2023-12-20T11:11:35;1.23;;;0.93;;
8663;SDS011;4369;47.842;13.096;2023-12-20T11:14:13;3.33;;;1.30;;
8663;SDS011;4369;47.842;13.096;2023-12-20T11:16:45;2.27;;;1.17;;
8663;SDS011;4369;47.842;13.096;2023-12-20T11:19:12;4.50;;;1.13;;
8663;SDS011;4369;47.842;13.096;2023-12-20T11:21:40;2.53;;;1.27;;
8663;SDS011;4369;47.842;13.096;2023-12-20T11:24:07;4.27;;;1.10;;
8663;SDS011;4369;47.842;13.096;2023-12-20T11:26:35;2.20;;;0.83;;
8663;SDS011;4369;47.842;13.096;2023-12-20T11:32:01;2.83;;;1.20;;
8663;SDS011;4369;47.842;13.096;2023-12-20T11:34:31;2.67;;;1.23;;
8663;SDS011;4369;47.842;13.096;2023-12-20T11:36:59;2.47;;;0.97;;
8663;SDS011;4369;47.842;13.096;2023-12-20T11:39:27;1.83;;;1.10;;
8663;SDS011;4369;47.842;13.096;2023-12-20T11:41:55;0.90;;;0.90;;
8663;SDS011;4369;47.842;13.096;2023-12-20T11:44:25;1.17;;;1.00;;
8663;SDS011;4369;47.842;13.096;2023-12-20T11:46:53;0.80;;;0.80;;
8663;SDS011;4369;47.842;13.096;2023-12-20T11:49:24;1.70;;;0.93;;
8663;SDS011;4369;47.842;13.096;2023-12-20T11:51:51;0.70;;;0.57;;
8663;SDS011;4369;47.842;13.096;2023-12-20T11:54:18;2.43;;;1.00;;
8663;SDS011;4369;47.842;13.096;2023-12-20T11:56:45;1.07;;;0.70;;
8663;SDS011;4369;47.842;13.096;2023-12-20T11:59:13;1.63;;;0.93;;
8663;SDS011;4369;47.842;13.096;2023-12-20T12:01:41;1.13;;;1.00;;
8663;SDS011;4369;47.842;13.096;2023-12-20T12:04:16;1.00;;;0.90;;
8663;SDS011;4369;47.842;13.096;2023-12-20T12:06:43;0.70;;;0.50;;
8663;SDS011;4369;47.842;13.096;2023-12-20T12:09:11;2.73;;;0.90;;
8663;SDS011;4369;47.842;13.096;2023-12-20T12:11:38;0.80;;;0.80;;
8663;SDS011;4369;47.842;13.096;2023-12-20T12:14:06;1.83;;;1.00;;
8663;SDS011;4369;47.842;13.096;2023-12-20T12:16:33;1.33;;;1.00;;
8663;SDS011;4369;47.842;13.096;2023-12-20T12:19:01;2.13;;;0.73;;
8663;SDS011;4369;47.842;13.096;2023-12-20T12:21:30;2.40;;;0.80;;
8663;SDS011;4369;47.842;13.096;2023-12-20T12:24:06;1.23;;;1.10;;
8663;SDS011;4369;47.842;13.096;2023-12-20T12:26:33;0.63;;;0.63;;
8663;SDS011;4369;47.842;13.096;2023-12-20T12:29:00;1.10;;;1.03;;
8663;SDS011;4369;47.842;13.096;2023-12-20T12:31:27;0.83;;;0.83;;
8663;SDS011;4369;47.842;13.096;2023-12-20T12:33:55;0.50;;;0.50;;
8663;SDS011;4369;47.842;13.096;2023-12-20T12:36:22;1.47;;;1.17;;
8663;SDS011;4369;47.842;13.096;2023-12-20T12:38:51;2.27;;;1.20;;
8663;SDS011;4369;47.842;13.096;2023-12-20T12:41:18;1.63;;;1.30;;
8663;SDS011;4369;47.842;13.096;2023-12-20T12:43:45;1.70;;;0.90;;
8663;SDS011;4369;47.842;13.096;2023-12-20T12:46:12;1.50;;;1.00;;
8663;SDS011;4369;47.842;13.096;2023-12-20T12:48:39;3.40;;;1.50;;
8663;SDS011;4369;47.842;13.096;2023-12-20T12:51:06;0.70;;;0.70;;
8663;SDS011;4369;47.842;13.096;2023-12-20T12:53:37;1.30;;;1.20;;
8663;SDS011;4369;47.842;13.096;2023-12-20T12:56:06;4.27;;;1.20;;
8663;SDS011;4369;47.842;13.096;2023-12-20T12:58:33;0.90;;;0.90;;
8663;SDS011;4369;47.842;13.096;2023-12-20T13:01:00;3.50;;;1.20;;
8663;SDS011;4369;47.842;13.096;2023-12-20T13:03:28;3.37;;;1.40;;
8663;SDS011;4369;47.842;13.096;2023-12-20T13:05:55;3.77;;;1.30;;
8663;SDS011;4369;47.842;13.096;2023-12-20T13:08:22;1.37;;;1.27;;
8663;SDS011;4369;47.842;13.096;2023-12-20T13:10:50;2.27;;;1.27;;
8663;SDS011;4369;47.842;13.096;2023-12-20T13:13:18;3.40;;;1.30;;
8663;SDS011;4369;47.842;13.096;2023-12-20T13:15:45;1.00;;;0.90;;
8663;SDS011;4369;47.842;13.096;2023-12-20T13:18:16;2.20;;;1.00;;
8663;SDS011;4369;47.842;13.096;2023-12-20T13:20:44;2.13;;;0.90;;
8663;SDS011;4369;47.842;13.096;2023-12-20T13:23:11;2.43;;;1.37;;
8663;SDS011;4369;47.842;13.096;2023-12-20T13:25:39;1.23;;;1.03;;
8663;SDS011;4369;47.842;13.096;2023-12-20T13:28:06;1.90;;;1.20;;
8663;SDS011;4369;47.842;13.096;2023-12-20T13:30:34;4.03;;;1.17;;
8663;SDS011;4369;47.842;13.096;2023-12-20T13:33:01;1.40;;;1.30;;
8663;SDS011;4369;47.842;13.096;2023-12-20T13:35:28;1.93;;;1.07;;
8663;SDS011;4369;47.842;13.096;2023-12-20T13:37:55;7.00;;;1.93;;
8663;SDS011;4369;47.842;13.096;2023-12-20T13:40:22;1.80;;;1.70;;
8663;SDS011;4369;47.842;13.096;2023-12-20T13:42:49;1.50;;;1.40;;
8663;SDS011;4369;47.842;13.096;2023-12-20T13:45:16;1.43;;;1.20;;
8663;SDS011;4369;47.842;13.096;2023-12-20T13:47:45;1.00;;;0.90;;
8663;SDS011;4369;47.842;13.096;2023-12-20T13:50:12;3.47;;;1.60;;
8663;SDS011;4369;47.842;13.096;2023-12-20T13:52:39;1.43;;;0.93;;
8663;SDS011;4369;47.842;13.096;2023-12-20T13:55:06;1.40;;;1.30;;
8663;SDS011;4369;47.842;13.096;2023-12-20T13:57:34;6.00;;;1.50;;
8663;SDS011;4369;47.842;13.096;2023-12-20T14:00:02;0.93;;;0.93;;
8663;SDS011;4369;47.842;13.096;2023-12-20T14:02:30;2.40;;;1.50;;
8663;SDS011;4369;47.842;13.096;2023-12-20T14:04:58;3.47;;;1.97;;
8663;SDS011;4369;47.842;13.096;2023-12-20T14:07:26;7.50;;;2.57;;
8663;SDS011;4369;47.842;13.096;2023-12-20T14:09:54;4.67;;;1.60;;
8663;SDS011;4369;47.842;13.096;2023-12-20T14:12:21;2.10;;;1.60;;
8663;SDS011;4369;47.842;13.096;2023-12-20T14:14:49;2.23;;;1.73;;
8663;SDS011;4369;47.842;13.096;2023-12-20T14:17:17;3.43;;;1.90;;
8663;SDS011;4369;47.842;13.096;2023-12-20T14:19:44;3.90;;;1.70;;
8663;SDS011;4369;47.842;13.096;2023-12-20T14:22:12;4.60;;;1.80;;
8663;SDS011;4369;47.842;13.096;2023-12-20T14:24:41;4.20;;;2.00;;
8663;SDS011;4369;47.842;13.096;2023-12-20T14:27:09;2.57;;;1.63;;
8663;SDS011;4369;47.842;13.096;2023-12-20T14:29:36;1.87;;;1.30;;
8663;SDS011;4369;47.842;13.096;2023-12-20T14:32:03;1.60;;;1.30;;
8663;SDS011;4369;47.842;13.096;2023-12-20T14:34:31;1.80;;;1.20;;
8663;SDS011;4369;47.842;13.096;2023-12-20T14:36:58;1.33;;;1.17;;
8663;SDS011;4369;47.842;13.096;2023-12-20T14:39:26;6.53;;;1.90;;
8663;SDS011;4369;47.842;13.096;2023-12-20T14:41:53;1.40;;;1.30;;
8663;SDS011;4369;47.842;13.096;2023-12-20T14:44:20;3.07;;;1.43;;
8663;SDS011;4369;47.842;13.096;2023-12-20T14:46:47;1.27;;;1.20;;
8663;SDS011;4369;47.842;13.096;2023-12-20T14:49:14;2.33;;;1.47;;
8663;SDS011;4369;47.842;13.096;2023-12-20T14:51:43;5.50;;;1.83;;
8663;SDS011;4369;47.842;13.096;2023-12-20T14:54:12;1.67;;;1.33;;
8663;SDS011;4369;47.842;13.096;2023-12-20T14:56:41;1.50;;;1.40;;
8663;SDS011;4369;47.842;13.096;2023-12-20T14:59:08;3.47;;;1.70;;
8663;SDS011;4369;47.842;13.096;2023-12-20T15:01:36;3.23;;;1.60;;
8663;SDS011;4369;47.842;13.096;2023-12-20T15:04:03;3.53;;;1.57;;
8663;SDS011;4369;47.842;13.096;2023-12-20T15:06:30;4.50;;;1.80;;